Time;durP1;ratioP1;P1;durP2;ratioP2;P2;SDS_P1;SDS_P2;PMS_P1;PMS_P2;Temp;Humidity;BMP_temperature;BMP_pressure;BME280_temperature;BME280_humidity;BME280_pressure;Samples;Min_cycle;Max_cycle;Signal;HPM_P1;HPM_P2
2023/05/17 05:13:12;;;;;;;22.40;3.90;;;16.00;66.90;;;;;;5418399;24;20063;-66
2023/05/17 05:15:38;;;;;;;19.88;3.10;;;16.00;67.00;;;;;;4803994;29;20141;-66
2023/05/17 05:18:03;;;;;;;15.65;2.60;;;16.00;67.40;;;;;;4794172;29;20147;-66
2023/05/17 05:20:30;;;;;;;18.80;2.90;;;16.10;67.20;;;;;;4792785;30;20446;-66
2023/05/17 05:22:57;;;;;;;16.05;3.15;;;16.00;66.80;;;;;;4796480;29;20179;-66
2023/05/17 05:25:23;;;;;;;11.35;1.80;;;16.00;66.60;;;;;;4808575;29;20126;-66
2023/05/17 05:27:49;;;;;;;28.83;4.03;;;16.00;62.60;;;;;;4800586;29;20130;-66
2023/05/17 05:30:21;;;;;;;24.88;3.25;;;15.90;63.90;;;;;;4792370;29;20054;-67
2023/05/17 05:32:50;;;;;;;15.55;2.65;;;15.90;65.30;;;;;;4792658;29;20055;-66
2023/05/17 05:35:16;;;;;;;17.73;2.45;;;15.90;65.80;;;;;;4792304;29;20094;-66
2023/05/17 05:37:42;;;;;;;12.85;2.40;;;15.90;66.10;;;;;;4801093;29;20488;-70
2023/05/17 05:40:09;;;;;;;15.07;2.83;;;15.90;66.10;;;;;;4810309;29;20054;-66
2023/05/17 05:42:35;;;;;;;27.80;3.78;;;15.90;66.00;;;;;;4778391;29;20054;-66
2023/05/17 05:45:01;;;;;;;27.13;4.07;;;15.90;66.20;;;;;;4810269;29;20065;-67
2023/05/17 05:47:27;;;;;;;33.25;4.50;;;15.90;66.00;;;;;;4809560;29;20066;-67
2023/05/17 05:49:52;;;;;;;30.58;4.45;;;16.00;66.20;;;;;;4809094;29;21200;-66
2023/05/17 05:52:18;;;;;;;27.58;4.53;;;16.00;66.30;;;;;;4809840;29;20074;-66
2023/05/17 05:54:44;;;;;;;28.90;4.47;;;16.00;66.70;;;;;;4810123;29;20506;-66
2023/05/17 05:57:10;;;;;;;18.80;2.63;;;16.00;67.00;;;;;;4810789;29;20110;-66
2023/05/17 05:59:36;;;;;;;16.98;3.10;;;16.00;62.40;;;;;;4810363;29;20446;-66
2023/05/17 06:02:01;;;;;;;20.35;3.97;;;15.90;58.40;;;;;;4810024;29;20051;-66
2023/05/17 06:04:27;;;;;;;36.25;5.50;;;15.70;58.60;;;;;;4809844;29;20515;-66
2023/05/17 06:06:53;;;;;;;54.58;6.72;;;15.60;60.20;;;;;;4809832;29;20065;-66
2023/05/17 06:09:19;;;;;;;78.55;9.27;;;15.60;63.50;;;;;;4792019;29;20085;-65
2023/05/17 06:11:45;;;;;;;61.63;9.10;;;15.60;65.20;;;;;;4793532;29;20050;-65
2023/05/17 06:14:11;;;;;;;61.95;8.18;;;15.70;66.00;;;;;;4817278;29;20058;-66
2023/05/17 06:16:36;;;;;;;42.25;6.88;;;15.70;66.00;;;;;;4828006;29;20059;-65
2023/05/17 06:19:03;;;;;;;51.08;7.28;;;15.80;65.80;;;;;;4828277;29;20177;-65
2023/05/17 06:21:29;;;;;;;35.58;5.82;;;15.80;65.60;;;;;;4827147;29;20055;-65
2023/05/17 06:23:56;;;;;;;48.30;6.20;;;15.70;65.40;;;;;;4828275;29;20125;-65
2023/05/17 06:26:21;;;;;;;38.10;6.25;;;15.70;65.40;;;;;;4827609;29;20470;-66
2023/05/17 06:28:47;;;;;;;36.38;6.53;;;15.70;65.40;;;;;;4827682;29;20046;-65
2023/05/17 06:31:13;;;;;;;33.75;6.28;;;15.70;66.00;;;;;;4827770;29;20106;-65
2023/05/17 06:33:39;;;;;;;32.97;6.13;;;15.70;65.40;;;;;;4827092;29;20058;-65
2023/05/17 06:36:05;;;;;;;41.20;5.38;;;15.70;65.50;;;;;;4827474;29;20049;-65
2023/05/17 06:38:31;;;;;;;33.70;5.18;;;15.70;65.70;;;;;;4827270;29;20054;-65
2023/05/17 06:40:57;;;;;;;28.98;4.93;;;15.70;65.90;;;;;;4827674;29;20061;-66
2023/05/17 06:43:23;;;;;;;30.60;5.25;;;15.80;66.20;;;;;;4825130;29;20473;-65
2023/05/17 06:45:49;;;;;;;38.67;5.93;;;15.80;66.10;;;;;;4827891;29;20057;-66
2023/05/17 06:48:15;;;;;;;27.15;4.95;;;15.80;66.10;;;;;;4827282;29;20054;-66
2023/05/17 06:50:41;;;;;;;35.28;5.15;;;15.80;66.40;;;;;;4827095;29;20424;-66
2023/05/17 06:53:06;;;;;;;30.30;5.70;;;15.80;66.60;;;;;;4826524;29;20050;-66
2023/05/17 06:55:32;;;;;;;28.83;4.50;;;15.80;66.80;;;;;;4826316;29;20129;-66
2023/05/17 06:57:59;;;;;;;43.10;6.40;;;15.90;67.20;;;;;;4827378;29;20141;-65
2023/05/17 07:00:25;;;;;;;30.42;4.97;;;15.90;68.00;;;;;;4827206;29;20058;-65
2023/05/17 07:02:51;;;;;;;26.50;4.55;;;15.90;67.10;;;;;;4826769;29;20494;-65
2023/05/17 07:05:17;;;;;;;29.63;4.95;;;15.90;66.90;;;;;;4822711;29;20051;-65
2023/05/17 07:07:42;;;;;;;25.73;5.22;;;15.90;66.60;;;;;;4811295;29;20046;-65
2023/05/17 07:10:08;;;;;;;18.80;3.25;;;15.90;66.40;;;;;;4826916;29;20042;-64
2023/05/17 07:12:34;;;;;;;25.10;4.10;;;15.90;64.90;;;;;;4810593;29;20060;-65
2023/05/17 07:15:00;;;;;;;21.90;4.13;;;15.90;63.20;;;;;;4804494;29;20431;-65
2023/05/17 07:17:26;;;;;;;21.05;3.38;;;15.70;62.90;;;;;;4826629;29;20062;-65
2023/05/17 07:19:51;;;;;;;22.73;3.63;;;15.70;62.90;;;;;;4826767;29;20122;-65
2023/05/17 07:22:18;;;;;;;27.17;3.60;;;15.70;62.90;;;;;;4825583;29;20060;-65
2023/05/17 07:24:45;;;;;;;17.88;4.13;;;15.60;62.90;;;;;;4821567;29;20480;-65
2023/05/17 07:27:10;;;;;;;24.67;4.32;;;15.60;63.00;;;;;;4826035;29;20203;-65
2023/05/17 07:29:36;;;;;;;23.05;3.58;;;15.60;63.90;;;;;;4827495;29;20137;-66
2023/05/17 07:32:02;;;;;;;17.65;2.67;;;15.60;62.80;;;;;;4824922;29;20448;-66
2023/05/17 07:34:29;;;;;;;12.20;2.78;;;15.60;61.90;;;;;;4826496;29;20050;-65
2023/05/17 07:36:55;;;;;;;17.20;2.90;;;15.60;61.30;;;;;;4826587;29;20058;-65
2023/05/17 07:39:21;;;;;;;13.98;2.75;;;15.50;61.00;;;;;;4826893;29;20492;-65
2023/05/17 07:41:46;;;;;;;9.85;2.28;;;15.50;60.70;;;;;;4811332;29;20485;-65
2023/05/17 07:44:12;;;;;;;12.23;3.03;;;15.50;60.30;;;;;;4826598;29;20068;-65
2023/05/17 07:46:38;;;;;;;12.82;2.42;;;15.40;60.20;;;;;;4824932;29;20133;-65
2023/05/17 07:49:03;;;;;;;14.57;2.92;;;15.40;59.90;;;;;;4820385;29;20078;-65
2023/05/17 07:51:30;;;;;;;12.65;3.00;;;15.40;60.00;;;;;;4826312;29;20046;-65
2023/05/17 07:53:56;;;;;;;18.00;3.40;;;15.40;59.90;;;;;;4825660;29;20058;-65
2023/05/17 07:56:22;;;;;;;11.15;3.05;;;15.40;59.70;;;;;;4826534;29;20126;-65
2023/05/17 07:58:47;;;;;;;11.15;2.42;;;15.40;59.40;;;;;;4826480;29;20050;-66
2023/05/17 08:01:13;;;;;;;11.75;2.38;;;15.30;59.40;;;;;;4807172;29;20043;-66
2023/05/17 08:03:46;;;;;;;11.32;2.67;;;15.30;59.30;;;;;;4820422;29;20050;-66
2023/05/17 08:06:15;;;;;;;9.67;2.60;;;15.30;58.70;;;;;;4826258;29;20050;-66
2023/05/17 08:08:42;;;;;;;12.95;2.35;;;15.30;58.30;;;;;;4824255;29;20046;-66
2023/05/17 08:11:10;;;;;;;13.82;3.00;;;15.20;58.30;;;;;;4826070;29;20061;-65
2023/05/17 08:13:36;;;;;;;8.77;2.25;;;15.20;58.30;;;;;;4825584;29;20163;-65
2023/05/17 08:16:02;;;;;;;12.32;2.60;;;15.20;58.60;;;;;;4825774;29;20062;-65
2023/05/17 08:18:31;;;;;;;13.02;2.45;;;15.20;58.60;;;;;;4825854;29;20058;-65
2023/05/17 08:20:57;;;;;;;16.90;2.83;;;15.20;58.30;;;;;;4825360;29;20050;-66
2023/05/17 08:23:23;;;;;;;24.52;3.60;;;15.20;59.20;;;;;;4825808;29;20073;-69
2023/05/17 08:25:49;;;;;;;18.67;3.47;;;15.20;60.30;;;;;;4825646;29;20054;-65
2023/05/17 08:28:14;;;;;;;18.48;3.03;;;15.20;61.60;;;;;;4825699;29;20050;-66
2023/05/17 08:30:40;;;;;;;17.80;3.63;;;15.30;60.90;;;;;;4825745;29;20086;-65
2023/05/17 08:33:08;;;;;;;29.15;4.70;;;15.30;60.50;;;;;;4825885;29;20385;-67
2023/05/17 08:35:35;;;;;;;26.80;4.70;;;15.30;60.80;;;;;;4825625;29;20537;-66
2023/05/17 08:38:01;;;;;;;20.02;3.42;;;15.30;60.60;;;;;;4820302;29;20373;-66
2023/05/17 08:40:27;;;;;;;14.13;2.60;;;15.40;59.60;;;;;;4825943;29;20194;-67
2023/05/17 08:42:53;;;;;;;23.95;3.50;;;15.30;58.80;;;;;;4826119;29;20458;-66
2023/05/17 08:45:19;;;;;;;19.75;3.85;;;15.30;58.10;;;;;;4828852;29;20137;-66
2023/05/17 08:47:45;;;;;;;20.50;3.92;;;15.20;58.30;;;;;;4825140;29;20138;-67
2023/05/17 08:50:11;;;;;;;26.65;3.78;;;15.20;58.90;;;;;;4826458;29;20050;-65
2023/05/17 08:52:39;;;;;;;15.23;2.50;;;15.20;58.40;;;;;;4823726;29;20046;-66
2023/05/17 08:55:07;;;;;;;11.70;2.30;;;15.20;58.60;;;;;;4829367;29;20154;-66
2023/05/17 08:57:37;;;;;;;10.70;2.60;;;15.30;58.80;;;;;;4828937;29;20164;-66
2023/05/17 09:00:12;;;;;;;21.73;3.83;;;15.30;59.20;;;;;;4828937;29;20061;-68
2023/05/17 09:02:41;;;;;;;14.63;3.00;;;15.30;60.30;;;;;;4828779;29;20042;-66
2023/05/17 09:05:07;;;;;;;12.02;2.90;;;15.30;59.20;;;;;;4827661;29;20061;-66
2023/05/17 09:07:34;;;;;;;10.15;2.00;;;15.30;58.60;;;;;;4821442;29;20055;-66
2023/05/17 09:10:02;;;;;;;13.95;3.30;;;15.30;57.60;;;;;;4828864;29;20058;-66
2023/05/17 09:12:28;;;;;;;18.00;2.83;;;15.30;57.20;;;;;;4828390;29;20361;-65
2023/05/17 09:15:12;;;;;;;13.57;2.88;;;15.30;57.10;;;;;;4828879;29;20366;-65
2023/05/17 09:17:39;;;;;;;13.50;2.53;;;15.30;57.60;;;;;;4828738;29;20051;-65
2023/05/17 09:20:07;;;;;;;15.85;2.63;;;15.30;57.60;;;;;;4828752;29;20061;-65
2023/05/17 09:22:34;;;;;;;9.63;2.28;;;15.30;57.30;;;;;;4821420;29;20115;-65
2023/05/17 09:25:03;;;;;;;11.07;2.38;;;15.30;57.30;;;;;;4810371;29;20046;-65
2023/05/17 09:27:30;;;;;;;15.13;2.53;;;15.30;57.50;;;;;;4810169;29;20057;-65
2023/05/17 09:29:57;;;;;;;8.60;2.33;;;15.40;56.80;;;;;;4810492;29;20051;-65
2023/05/17 09:32:23;;;;;;;8.38;2.05;;;15.40;57.10;;;;;;4815830;29;20062;-65
2023/05/17 09:34:50;;;;;;;7.68;1.92;;;15.40;57.00;;;;;;4828271;29;20056;-65
2023/05/17 09:37:18;;;;;;;6.72;1.98;;;15.40;56.40;;;;;;4828681;29;20050;-65
2023/05/17 09:39:45;;;;;;;7.43;2.00;;;15.40;56.80;;;;;;4828155;29;20133;-65
2023/05/17 09:42:11;;;;;;;6.40;1.80;;;15.40;56.90;;;;;;4824188;29;20131;-65
2023/05/17 09:44:52;;;;;;;6.60;1.85;;;15.40;56.30;;;;;;4810127;29;20127;-65
2023/05/17 09:47:28;;;;;;;6.75;1.40;;;15.40;55.90;;;;;;4810450;29;20090;-65
2023/05/17 09:49:59;;;;;;;6.10;1.40;;;15.40;54.90;;;;;;4810237;29;20100;-65
2023/05/17 09:52:30;;;;;;;7.95;1.88;;;15.40;55.60;;;;;;4815150;29;20054;-65
2023/05/17 09:54:57;;;;;;;7.53;1.92;;;15.40;55.10;;;;;;4826944;29;20569;-65
2023/05/17 09:57:27;;;;;;;6.00;1.63;;;15.40;54.60;;;;;;4828165;29;20129;-65
2023/05/17 09:59:56;;;;;;;7.03;1.63;;;15.30;55.10;;;;;;4828297;29;20050;-65
2023/05/17 10:02:34;;;;;;;5.25;1.38;;;15.40;54.90;;;;;;4824062;29;20038;-66
2023/05/17 10:05:04;;;;;;;7.68;1.88;;;15.40;55.50;;;;;;4809749;29;20093;-65
2023/05/17 10:07:30;;;;;;;10.95;1.55;;;15.40;55.10;;;;;;4810469;29;20062;-65
2023/05/17 10:09:57;;;;;;;4.90;0.98;;;15.40;55.40;;;;;;4809991;29;20055;-65
2023/05/17 10:12:28;;;;;;;4.85;1.38;;;15.40;55.40;;;;;;4813712;29;20053;-66
2023/05/17 10:14:55;;;;;;;6.85;1.80;;;15.40;55.40;;;;;;4828036;29;20069;-65
2023/05/17 10:17:25;;;;;;;8.73;1.90;;;15.40;55.60;;;;;;4827498;29;20094;-65
2023/05/17 10:19:52;;;;;;;5.07;1.35;;;15.40;55.20;;;;;;4827636;29;20068;-66
2023/05/17 10:22:19;;;;;;;7.07;1.92;;;15.40;55.20;;;;;;4823980;29;20050;-65
2023/05/17 10:24:46;;;;;;;7.55;1.92;;;15.40;55.40;;;;;;4791984;29;20451;-65
2023/05/17 10:27:12;;;;;;;7.78;1.83;;;15.40;56.00;;;;;;4809495;29;20047;-66
2023/05/17 10:29:39;;;;;;;11.77;2.00;;;15.30;54.60;;;;;;4803777;29;20071;-65
2023/05/17 10:32:12;;;;;;;13.32;2.00;;;15.20;54.60;;;;;;4802812;29;20119;-65
2023/05/17 10:34:38;;;;;;;8.23;2.15;;;15.20;54.50;;;;;;4809284;29;20055;-65
2023/05/17 10:37:05;;;;;;;11.10;2.28;;;15.20;55.20;;;;;;4809184;29;20445;-65
2023/05/17 10:39:33;;;;;;;7.85;2.15;;;15.10;55.40;;;;;;4807086;29;20047;-65
2023/05/17 10:42:06;;;;;;;17.27;2.70;;;15.10;55.70;;;;;;4805871;29;20062;-65
2023/05/17 10:44:33;;;;;;;16.52;2.92;;;15.10;55.90;;;;;;4814910;29;20116;-65
2023/05/17 10:46:59;;;;;;;15.55;2.83;;;15.20;56.20;;;;;;4793371;29;20059;-64
2023/05/17 10:49:32;;;;;;;13.32;2.70;;;15.20;56.50;;;;;;4808722;29;20092;-65
2023/05/17 10:52:20;;;;;;;8.27;2.17;;;15.20;56.30;;;;;;4804169;29;20189;-65
2023/05/17 10:54:48;;;;;;;8.70;2.25;;;15.20;56.10;;;;;;4807672;29;20078;-65
2023/05/17 10:57:21;;;;;;;10.38;2.40;;;15.20;55.90;;;;;;4808405;29;20055;-65
2023/05/17 11:00:03;;;;;;;11.60;2.53;;;15.20;55.80;;;;;;4808122;29;20073;-64
2023/05/17 11:02:30;;;;;;;11.07;2.72;;;15.20;56.40;;;;;;4805289;29;20069;-64
2023/05/17 11:04:56;;;;;;;16.30;3.15;;;15.10;56.20;;;;;;4807895;29;20530;-65
2023/05/17 11:07:30;;;;;;;18.65;2.60;;;15.20;56.30;;;;;;4808294;29;20466;-65
2023/05/17 11:09:59;;;;;;;15.07;2.75;;;15.20;56.20;;;;;;4808630;29;20089;-65
2023/05/17 11:12:34;;;;;;;15.30;3.78;;;15.10;56.10;;;;;;4808793;29;20138;-66
2023/05/17 11:15:05;;;;;;;19.73;3.35;;;15.10;56.20;;;;;;4823268;29;20102;-65
2023/05/17 11:17:43;;;;;;;19.05;3.25;;;15.10;56.40;;;;;;4795256;29;20057;-64
2023/05/17 11:20:15;;;;;;;15.88;3.47;;;15.10;56.30;;;;;;4793825;29;20423;-65
2023/05/17 11:23:09;;;;;;;15.10;3.33;;;15.20;56.70;;;;;;4808417;29;20057;-64
2023/05/17 11:25:37;;;;;;;13.45;3.05;;;15.10;56.00;;;;;;4805504;29;20067;-64
2023/05/17 11:28:08;;;;;;;14.75;3.40;;;15.10;55.60;;;;;;4806627;29;20050;-64
2023/05/17 11:30:40;;;;;;;13.55;2.45;;;15.10;55.10;;;;;;4808196;29;20093;-68
2023/05/17 11:33:06;;;;;;;15.20;3.08;;;15.00;54.60;;;;;;4807729;29;20443;-64
2023/05/17 11:35:37;;;;;;;16.77;2.90;;;15.00;54.70;;;;;;4804742;29;20047;-65
2023/05/17 11:38:20;;;;;;;14.48;2.60;;;15.00;54.90;;;;;;4807576;29;20047;-65
2023/05/17 11:40:48;;;;;;;37.38;5.97;;;15.00;54.70;;;;;;4808109;29;20111;-67
2023/05/17 11:43:20;;;;;;;18.42;3.53;;;15.00;56.90;;;;;;4808040;29;20051;-65
2023/05/17 11:45:49;;;;;;;26.13;4.00;;;15.10;56.00;;;;;;4808022;29;20475;-66
2023/05/17 11:48:19;;;;;;;32.67;5.38;;;15.10;56.40;;;;;;4808445;29;20195;-66
2023/05/17 11:50:46;;;;;;;26.55;4.05;;;15.20;54.30;;;;;;4807922;29;20047;-66
2023/05/17 11:53:13;;;;;;;25.40;4.07;;;15.20;54.70;;;;;;4808070;29;20332;-66
2023/05/17 11:55:40;;;;;;;31.27;5.78;;;15.20;55.60;;;;;;4807215;29;20058;-67
2023/05/17 11:58:10;;;;;;;42.05;6.22;;;15.20;56.10;;;;;;4807211;29;20065;-66
2023/05/17 12:00:40;;;;;;;37.28;5.72;;;15.30;56.50;;;;;;4808385;29;20066;-66
2023/05/17 12:03:25;;;;;;;23.67;4.45;;;15.30;56.70;;;;;;4807925;29;20073;-67
2023/05/17 12:06:02;;;;;;;36.65;5.55;;;15.30;56.50;;;;;;4815342;29;20187;-66
2023/05/17 12:08:31;;;;;;;37.40;6.35;;;15.30;56.80;;;;;;4808098;29;20051;-66
2023/05/17 12:10:57;;;;;;;32.95;5.53;;;15.40;57.60;;;;;;4807989;29;20058;-66
2023/05/17 12:13:22;;;;;;;24.63;5.38;;;15.40;58.20;;;;;;4810478;29;20101;-67
2023/05/17 12:15:55;;;;;;;19.17;4.40;;;15.40;58.10;;;;;;4817715;29;20082;-67
2023/05/17 12:18:21;;;;;;;21.63;4.60;;;15.40;57.70;;;;;;4810564;29;20212;-66
2023/05/17 12:20:57;;;;;;;24.00;3.95;;;15.40;57.80;;;;;;4814578;29;20138;-66
2023/05/17 12:23:31;;;;;;;18.70;3.28;;;15.40;57.50;;;;;;4814601;29;20043;-65
2023/05/17 12:26:03;;;;;;;13.98;2.85;;;15.40;57.50;;;;;;4822015;29;20129;-66
2023/05/17 12:28:29;;;;;;;21.92;3.05;;;15.40;57.30;;;;;;4831180;29;20061;-66
2023/05/17 12:31:01;;;;;;;13.52;3.15;;;15.40;56.90;;;;;;4831883;29;20050;-65
2023/05/17 12:33:30;;;;;;;24.95;3.38;;;15.40;56.90;;;;;;4813821;29;20540;-66
2023/05/17 12:35:56;;;;;;;13.38;2.80;;;15.40;56.80;;;;;;4821834;29;20128;-65
2023/05/17 12:38:22;;;;;;;14.10;2.30;;;15.40;56.10;;;;;;4832007;29;20449;-66
2023/05/17 12:40:48;;;;;;;9.90;2.17;;;15.40;56.20;;;;;;4832085;29;20129;-66
2023/05/17 12:43:14;;;;;;;12.18;2.40;;;15.40;55.50;;;;;;4831730;29;20133;-66
2023/05/17 12:45:43;;;;;;;10.07;2.60;;;15.40;55.20;;;;;;4824799;29;20071;-67
2023/05/17 12:48:08;;;;;;;22.83;3.13;;;15.40;55.30;;;;;;4813601;29;20046;-67
2023/05/17 12:50:34;;;;;;;11.48;2.35;;;15.40;54.60;;;;;;4813718;29;20039;-68
2023/05/17 12:53:07;;;;;;;13.23;2.72;;;15.40;54.10;;;;;;4812950;29;20501;-71
2023/05/17 12:55:36;;;;;;;8.67;1.90;;;15.30;54.40;;;;;;4813114;29;20069;-70
2023/05/17 12:58:05;;;;;;;12.10;2.20;;;15.40;55.60;;;;;;4813924;29;20296;-67
2023/05/17 13:00:31;;;;;;;19.88;3.60;;;15.40;56.20;;;;;;4796690;29;20070;-68
2023/05/17 13:02:57;;;;;;;13.85;2.83;;;15.50;56.70;;;;;;4814077;29;20046;-69
2023/05/17 13:05:23;;;;;;;12.23;1.98;;;15.50;57.00;;;;;;4797879;29;20058;-68
2023/05/17 13:07:49;;;;;;;11.23;2.42;;;15.60;57.40;;;;;;4813349;29;20047;-68
2023/05/17 13:10:25;;;;;;;20.20;3.42;;;15.60;57.70;;;;;;4813319;29;20058;-67
2023/05/17 13:12:58;;;;;;;12.45;2.15;;;15.60;58.30;;;;;;4807695;29;20195;-68
2023/05/17 13:15:31;;;;;;;8.57;1.80;;;15.60;55.40;;;;;;4829791;29;20203;-67
2023/05/17 13:17:59;;;;;;;12.40;2.08;;;15.60;53.70;;;;;;4831491;29;20050;-67
2023/05/17 13:20:26;;;;;;;11.00;2.50;;;15.50;53.60;;;;;;4831168;29;20209;-66
2023/05/17 13:22:52;;;;;;;13.27;1.73;;;15.50;53.40;;;;;;4831265;29;20058;-67
2023/05/17 13:25:19;;;;;;;9.77;1.70;;;15.40;52.20;;;;;;4831017;29;20057;-67
2023/05/17 13:27:47;;;;;;;11.57;2.00;;;15.40;52.30;;;;;;4831371;29;20447;-66
2023/05/17 13:30:15;;;;;;;33.33;4.57;;;15.30;52.20;;;;;;4829083;29;20458;-65
2023/05/17 13:32:41;;;;;;;33.58;4.30;;;15.30;53.50;;;;;;4828459;29;20145;-67
2023/05/17 13:35:07;;;;;;;37.08;4.60;;;15.30;54.20;;;;;;4828412;29;20408;-66
2023/05/17 13:37:34;;;;;;;25.73;4.28;;;15.40;54.80;;;;;;4828498;29;20065;-67
2023/05/17 13:40:00;;;;;;;18.58;3.40;;;15.50;55.20;;;;;;4828936;29;20080;-67
2023/05/17 13:42:26;;;;;;;18.13;3.00;;;15.50;55.60;;;;;;4828445;29;20066;-67
2023/05/17 13:44:52;;;;;;;13.68;3.15;;;15.50;55.80;;;;;;4828023;29;20056;-66
2023/05/17 13:47:18;;;;;;;16.70;2.80;;;15.50;56.10;;;;;;4828633;29;20047;-67
2023/05/17 13:49:43;;;;;;;16.42;3.25;;;15.50;56.30;;;;;;4828562;29;20062;-67
2023/05/17 13:52:11;;;;;;;21.50;2.90;;;15.60;56.50;;;;;;4828597;29;20046;-67
2023/05/17 13:54:37;;;;;;;14.13;2.50;;;15.60;56.70;;;;;;4828179;29;20466;-67
2023/05/17 13:57:05;;;;;;;18.80;2.38;;;15.60;56.90;;;;;;4828119;29;20535;-67
2023/05/17 13:59:31;;;;;;;17.65;2.63;;;15.60;57.10;;;;;;4828490;29;20061;-66
2023/05/17 14:01:57;;;;;;;14.30;2.85;;;15.60;57.40;;;;;;4812102;29;20065;-67
2023/05/17 14:04:22;;;;;;;15.60;2.38;;;15.60;57.60;;;;;;4827701;29;20050;-66
2023/05/17 14:06:48;;;;;;;11.73;2.83;;;15.70;57.80;;;;;;4827503;29;20052;-67
2023/05/17 14:09:14;;;;;;;13.60;2.63;;;15.70;58.00;;;;;;4827761;29;20126;-67
2023/05/17 14:11:40;;;;;;;21.00;2.70;;;15.70;58.10;;;;;;4826488;29;20042;-68
2023/05/17 14:14:06;;;;;;;10.35;1.95;;;15.70;58.30;;;;;;4826774;29;20054;-68
2023/05/17 14:16:31;;;;;;;12.48;2.35;;;15.70;58.30;;;;;;4827476;29;20101;-67
2023/05/17 14:18:59;;;;;;;14.25;2.53;;;15.70;58.60;;;;;;4827645;29;20054;-68
2023/05/17 14:21:25;;;;;;;17.52;3.38;;;15.70;58.70;;;;;;4827599;29;20063;-66
2023/05/17 14:23:50;;;;;;;14.45;2.22;;;15.70;58.90;;;;;;4821533;29;20058;-66
2023/05/17 14:26:16;;;;;;;15.75;2.95;;;15.70;59.10;;;;;;4828022;29;20103;-69
2023/05/17 14:28:42;;;;;;;18.55;3.28;;;15.70;60.00;;;;;;4827852;29;20042;-68
2023/05/17 14:31:09;;;;;;;24.70;4.07;;;15.70;59.50;;;;;;4811192;29;20065;-67
2023/05/17 14:33:34;;;;;;;20.85;3.25;;;15.70;59.80;;;;;;4826702;29;20404;-68
2023/05/17 14:36:01;;;;;;;23.38;3.33;;;15.70;59.90;;;;;;4828027;29;20046;-68
2023/05/17 14:38:26;;;;;;;15.52;3.03;;;15.80;60.10;;;;;;4824938;29;20110;-67
2023/05/17 14:40:52;;;;;;;21.08;2.97;;;15.70;60.20;;;;;;4826748;29;20422;-67
2023/05/17 14:43:19;;;;;;;22.00;3.65;;;15.80;60.40;;;;;;4826098;29;20529;-67
2023/05/17 14:45:45;;;;;;;24.67;3.45;;;15.80;60.60;;;;;;4810657;29;20054;-68
2023/05/17 14:48:10;;;;;;;18.77;2.95;;;15.80;60.80;;;;;;4810986;29;20211;-67
2023/05/17 14:50:36;;;;;;;22.73;3.35;;;15.80;60.90;;;;;;4827110;29;20057;-68
2023/05/17 14:53:02;;;;;;;22.17;3.03;;;15.80;61.10;;;;;;4827390;29;20049;-67
2023/05/17 14:55:28;;;;;;;17.33;3.00;;;15.80;61.20;;;;;;4811605;29;20473;-67
2023/05/17 14:57:56;;;;;;;15.52;2.50;;;15.80;61.20;;;;;;4827065;29;20050;-68
2023/05/17 15:00:23;;;;;;;13.75;1.75;;;15.80;61.10;;;;;;4827092;29;20101;-67
2023/05/17 15:02:49;;;;;;;8.70;1.90;;;15.80;60.90;;;;;;4810544;29;20054;-67
2023/05/17 15:05:16;;;;;;;15.35;2.70;;;15.80;60.80;;;;;;4821564;29;20046;-67
2023/05/17 15:07:42;;;;;;;16.30;2.50;;;15.80;60.80;;;;;;4826992;29;20050;-67
2023/05/17 15:10:10;;;;;;;17.50;2.65;;;15.80;60.70;;;;;;4826295;29;20050;-69
2023/05/17 15:12:36;;;;;;;18.88;2.58;;;15.80;60.60;;;;;;4826687;29;20050;-68
2023/05/17 15:15:02;;;;;;;22.02;2.83;;;15.80;60.70;;;;;;4810455;29;20131;-68
2023/05/17 15:17:27;;;;;;;16.58;2.95;;;15.80;60.80;;;;;;4827287;29;20408;-67
2023/05/17 15:19:53;;;;;;;19.33;3.35;;;15.80;60.80;;;;;;4811070;29;20114;-68
2023/05/17 15:22:19;;;;;;;14.65;2.00;;;15.80;61.50;;;;;;4810974;29;20339;-67
2023/05/17 15:24:45;;;;;;;15.32;2.13;;;15.80;61.00;;;;;;4827053;29;20054;-67
2023/05/17 15:27:15;;;;;;;13.05;2.05;;;15.80;61.10;;;;;;4796033;29;20054;-68
2023/05/17 15:29:41;;;;;;;13.05;1.88;;;15.80;61.20;;;;;;4827477;29;20452;-66
2023/05/17 15:32:07;;;;;;;13.23;2.40;;;15.80;61.30;;;;;;4826778;29;20129;-67
2023/05/17 15:34:33;;;;;;;13.73;2.60;;;15.80;61.30;;;;;;4827117;29;20042;-67
2023/05/17 15:36:59;;;;;;;14.80;2.08;;;15.90;61.20;;;;;;4826273;29;20069;-65
2023/05/17 15:39:26;;;;;;;12.70;2.05;;;15.90;61.30;;;;;;4826802;29;20077;-65
2023/05/17 15:41:52;;;;;;;28.55;4.15;;;15.90;61.30;;;;;;4826278;29;20398;-68
2023/05/17 15:44:18;;;;;;;22.33;3.20;;;15.90;59.80;;;;;;4826522;29;20060;-66
2023/05/17 15:46:44;;;;;;;14.05;1.80;;;15.90;56.50;;;;;;4826789;29;20474;-67
2023/05/17 15:49:10;;;;;;;8.80;1.50;;;15.80;55.10;;;;;;4826525;29;20133;-68
2023/05/17 15:51:36;;;;;;;13.32;2.85;;;15.80;54.20;;;;;;4794504;29;20316;-67
2023/05/17 15:54:01;;;;;;;15.45;2.35;;;15.70;53.80;;;;;;4806330;29;20050;-68
2023/05/17 15:56:27;;;;;;;20.45;2.45;;;15.70;53.90;;;;;;4825154;29;20420;-68
2023/05/17 15:58:53;;;;;;;21.20;2.80;;;15.70;54.70;;;;;;4826632;29;20054;-67
2023/05/17 16:01:19;;;;;;;17.80;2.58;;;15.70;55.70;;;;;;4826181;29;20093;-72
2023/05/17 16:03:45;;;;;;;15.90;3.60;;;15.70;56.30;;;;;;4826325;29;20438;-68
2023/05/17 16:06:11;;;;;;;19.67;2.80;;;15.80;58.60;;;;;;4827069;29;20050;-67
2023/05/17 16:08:37;;;;;;;17.75;2.92;;;15.80;60.40;;;;;;4826366;29;20054;-68
2023/05/17 16:11:03;;;;;;;26.67;3.15;;;15.90;60.70;;;;;;4826303;29;20051;-67
2023/05/17 16:13:29;;;;;;;21.27;3.53;;;15.90;60.70;;;;;;4825353;29;20059;-69
2023/05/17 16:15:56;;;;;;;20.55;2.72;;;16.00;61.10;;;;;;4823666;29;20058;-67
2023/05/17 16:18:22;;;;;;;17.00;3.25;;;16.00;61.20;;;;;;4826610;29;20073;-68
2023/05/17 16:20:56;;;;;;;25.13;3.45;;;16.00;61.40;;;;;;4826335;29;20050;-67
2023/05/17 16:23:22;;;;;;;24.35;3.13;;;16.00;61.40;;;;;;4805939;29;20193;-69
2023/05/17 16:25:47;;;;;;;23.33;2.85;;;16.00;61.50;;;;;;4808785;29;20141;-67
2023/05/17 16:28:13;;;;;;;37.10;4.43;;;16.10;61.80;;;;;;4797730;29;20042;-68
2023/05/17 16:30:39;;;;;;;27.17;3.85;;;16.00;61.60;;;;;;4807231;29;20485;-67
2023/05/17 16:33:05;;;;;;;24.40;3.47;;;16.10;61.90;;;;;;4807326;29;20092;-67
2023/05/17 16:35:30;;;;;;;36.85;3.97;;;16.10;62.00;;;;;;4807577;29;20141;-66
2023/05/17 16:37:56;;;;;;;27.80;3.75;;;16.10;62.00;;;;;;4807349;29;20055;-67
2023/05/17 16:40:22;;;;;;;20.90;4.00;;;16.10;62.20;;;;;;4807968;29;20378;-67
2023/05/17 16:42:48;;;;;;;23.38;3.88;;;16.10;62.30;;;;;;4791666;29;20051;-67
2023/05/17 16:45:13;;;;;;;29.63;3.67;;;16.20;62.30;;;;;;4807899;29;20058;-68
2023/05/17 16:47:39;;;;;;;32.85;4.88;;;16.20;62.50;;;;;;4791566;29;20534;-67
2023/05/17 16:50:05;;;;;;;27.20;3.75;;;16.20;62.50;;;;;;4807236;29;20050;-66
2023/05/17 16:52:31;;;;;;;27.10;4.20;;;16.20;62.60;;;;;;4807522;29;20123;-67
2023/05/17 16:55:01;;;;;;;25.40;4.15;;;16.30;62.90;;;;;;4807782;29;20059;-67
2023/05/17 16:57:29;;;;;;;39.13;4.75;;;16.30;62.90;;;;;;4808222;29;20130;-67
2023/05/17 16:59:55;;;;;;;27.20;4.05;;;16.30;63.00;;;;;;4817075;29;20046;-68
2023/05/17 17:02:23;;;;;;;23.92;4.10;;;16.30;63.10;;;;;;4825687;29;20176;-67
2023/05/17 17:04:49;;;;;;;27.98;3.53;;;16.20;63.10;;;;;;4827433;29;20069;-67
2023/05/17 17:07:15;;;;;;;33.28;4.82;;;16.20;63.20;;;;;;4813051;29;20066;-67
2023/05/17 17:09:40;;;;;;;12.68;2.20;;;16.30;63.60;;;;;;4797556;29;20062;-67
2023/05/17 17:12:06;;;;;;;16.75;2.03;;;16.20;63.10;;;;;;4809854;29;20142;-67
2023/05/17 17:14:32;;;;;;;28.38;3.58;;;16.30;62.60;;;;;;4821499;29;20062;-68
2023/05/17 17:16:58;;;;;;;25.27;3.28;;;16.40;63.10;;;;;;4828550;29;20069;-68
2023/05/17 17:19:23;;;;;;;23.05;3.70;;;16.40;63.40;;;;;;4828287;29;20382;-68
2023/05/17 17:21:49;;;;;;;33.90;4.38;;;16.40;63.70;;;;;;4828818;29;20054;-70
2023/05/17 17:24:15;;;;;;;30.00;4.32;;;16.40;63.90;;;;;;4827925;29;20065;-69
2023/05/17 17:26:41;;;;;;;23.38;3.55;;;16.30;64.10;;;;;;4827868;29;20051;-67
2023/05/17 17:29:07;;;;;;;34.05;3.80;;;16.30;64.10;;;;;;4828993;29;20054;-67
2023/05/17 17:31:33;;;;;;;33.13;4.82;;;16.30;63.90;;;;;;4828719;29;20050;-68
2023/05/17 17:33:59;;;;;;;34.05;4.55;;;16.30;63.90;;;;;;4828287;29;20066;-68
2023/05/17 17:36:25;;;;;;;33.33;3.85;;;16.30;63.90;;;;;;4827535;29;20061;-67
2023/05/17 17:38:51;;;;;;;19.17;3.40;;;16.30;64.00;;;;;;4828510;29;20137;-67
2023/05/17 17:41:16;;;;;;;17.15;2.80;;;16.30;64.20;;;;;;4829112;29;20046;-67
2023/05/17 17:43:42;;;;;;;24.65;3.20;;;16.20;64.30;;;;;;4828736;29;20062;-67
2023/05/17 17:46:08;;;;;;;50.33;5.68;;;16.20;64.40;;;;;;4827941;29;20057;-66
2023/05/17 17:48:35;;;;;;;39.88;5.15;;;16.20;64.70;;;;;;4828111;29;20062;-67
2023/05/17 17:51:00;;;;;;;33.42;5.10;;;16.20;64.90;;;;;;4828436;29;20129;-67